createdAt,value
2023-06-06T00:00:43.205Z,7.93
2023-06-06T00:05:46.157Z,5.05
2023-06-06T00:10:48.547Z,4.55
2023-06-06T00:15:50.992Z,4.45
2023-06-06T00:20:55.574Z,4.85
2023-06-06T00:25:57.973Z,3.20
2023-06-06T00:31:01.597Z,3.55
2023-06-06T00:36:05.345Z,4.15
2023-06-06T00:41:08.010Z,4.38
2023-06-06T00:46:13.551Z,4.57
2023-06-06T00:51:16.494Z,3.60
2023-06-06T00:56:21.263Z,5.30
2023-06-06T01:01:25.060Z,3.97
2023-06-06T01:06:35.435Z,4.68
2023-06-06T01:12:00.127Z,4.57
2023-06-06T01:17:05.237Z,4.38
2023-06-06T01:22:07.560Z,4.90
2023-06-06T01:27:11.759Z,3.35
2023-06-06T01:32:42.965Z,6.28
2023-06-06T01:37:53.969Z,3.97
2023-06-06T01:42:58.480Z,13.02
2023-06-06T01:48:02.533Z,5.20
2023-06-06T01:53:06.950Z,13.75
2023-06-06T01:58:11.319Z,3.88
2023-06-06T02:03:13.861Z,4.05
2023-06-06T02:08:17.673Z,5.50
2023-06-06T02:13:20.024Z,3.80
2023-06-06T02:18:23.133Z,3.13
2023-06-06T02:23:47.056Z,3.90
2023-06-06T02:28:49.401Z,5.97
2023-06-06T02:33:51.925Z,3.17
2023-06-06T02:38:55.538Z,4.75
2023-06-06T02:43:58.482Z,4.00
2023-06-06T02:49:01.601Z,4.15
2023-06-06T02:54:04.632Z,8.38
2023-06-06T02:59:11.145Z,8.48
2023-06-06T03:04:14.857Z,6.25
2023-06-06T03:09:21.088Z,3.63
2023-06-06T03:14:23.832Z,6.38
2023-06-06T03:19:26.903Z,4.22
2023-06-06T03:29:33.631Z,4.82
2023-06-06T03:34:37.402Z,5.43
2023-06-06T03:39:41.056Z,3.38
2023-06-06T03:44:46.052Z,5.03
2023-06-06T03:49:49.445Z,5.47
2023-06-06T03:54:53.054Z,9.05
2023-06-06T03:59:55.596Z,4.90
2023-06-06T04:05:02.620Z,5.38
2023-06-06T04:10:07.623Z,2.83
2023-06-06T04:15:13.289Z,6.78
2023-06-06T04:20:16.701Z,16.90
2023-06-06T04:25:20.828Z,5.78
2023-06-06T04:30:26.935Z,3.13
2023-06-06T04:35:30.393Z,4.55
2023-06-06T04:40:47.748Z,3.35
2023-06-06T04:45:59.467Z,3.88
2023-06-06T04:51:02.602Z,24.73
2023-06-06T04:56:07.560Z,4.45
2023-06-06T05:01:12.478Z,4.75
2023-06-06T05:06:15.781Z,4.78
2023-06-06T05:11:20.637Z,2.97
2023-06-06T05:16:23.928Z,5.40
2023-06-06T05:21:27.658Z,4.43
2023-06-06T05:26:32.288Z,3.53
2023-06-06T05:31:38.347Z,4.32
2023-06-06T05:36:45.074Z,13.48
2023-06-06T05:41:52.187Z,3.53
2023-06-06T05:46:57.913Z,4.47
2023-06-06T05:52:02.618Z,5.88
2023-06-06T05:57:19.240Z,7.40
2023-06-06T06:02:24.277Z,3.28
2023-06-06T06:07:29.618Z,10.23
2023-06-06T06:12:32.102Z,3.58
2023-06-06T06:17:35.867Z,7.22
2023-06-06T06:22:41.666Z,8.90
2023-06-06T06:27:48.804Z,2.50
2023-06-06T06:32:52.264Z,9.15
2023-06-06T06:37:55.724Z,9.93
2023-06-06T06:42:58.129Z,6.32
2023-06-06T06:48:10.187Z,4.03
2023-06-06T06:53:15.600Z,9.05
2023-06-06T06:58:27.229Z,7.45
2023-06-06T07:03:31.337Z,4.00
2023-06-06T07:08:35.161Z,6.85
2023-06-06T07:13:37.572Z,7.38
2023-06-06T07:18:42.129Z,11.23
2023-06-06T07:23:44.517Z,4.32
2023-06-06T07:28:48.418Z,3.03
2023-06-06T07:33:51.870Z,4.30
2023-06-06T07:38:55.531Z,1.73
2023-06-06T07:49:07.742Z,4.55
2023-06-06T07:54:12.889Z,11.13
2023-06-06T07:59:19.260Z,3.67
2023-06-06T08:04:34.725Z,6.07
2023-06-06T08:09:38.703Z,3.47
2023-06-06T08:14:42.854Z,7.25
2023-06-06T08:19:45.274Z,5.88
2023-06-06T08:25:13.956Z,3.75
2023-06-06T08:30:21.879Z,4.57
2023-06-06T08:35:26.648Z,15.77
2023-06-06T08:40:33.629Z,6.93
2023-06-06T08:45:41.324Z,7.97
2023-06-06T08:50:45.026Z,6.10
2023-06-06T08:55:48.716Z,4.70
2023-06-06T09:00:51.886Z,4.53
2023-06-06T09:05:57.752Z,4.90
2023-06-06T09:11:04.835Z,5.22
2023-06-06T09:16:09.736Z,2.92
2023-06-06T09:21:14.498Z,3.20
2023-06-06T09:26:21.978Z,3.92
2023-06-06T09:31:34.300Z,5.32
2023-06-06T09:36:39.648Z,5.63
2023-06-06T09:41:43.863Z,5.55
2023-06-06T09:51:49.861Z,4.13
2023-06-06T09:56:58.506Z,4.63
2023-06-06T10:02:09.476Z,4.75
2023-06-06T10:07:14.455Z,4.40
2023-06-06T10:12:18.372Z,3.50
2023-06-06T10:17:21.473Z,3.33
2023-06-06T10:22:25.760Z,3.65
2023-06-06T10:27:40.746Z,2.17
2023-06-06T10:33:04.176Z,6.60
2023-06-06T10:43:33.281Z,5.25
2023-06-06T10:48:39.590Z,7.18
2023-06-06T10:53:43.264Z,4.30
2023-06-06T10:58:48.071Z,7.25
2023-06-06T11:03:54.001Z,3.67
2023-06-06T11:09:02.592Z,4.10
2023-06-06T11:14:09.586Z,3.88
2023-06-06T11:19:17.632Z,3.05
2023-06-06T11:24:21.285Z,5.03
2023-06-06T11:29:25.024Z,9.02
2023-06-06T11:34:29.704Z,3.75
2023-06-06T11:39:32.682Z,5.93
2023-06-06T11:45:28.397Z,7.80
2023-06-06T11:50:31.711Z,7.75
2023-06-06T12:01:17.739Z,3.92
2023-06-06T12:06:25.806Z,5.45
2023-06-06T12:11:31.917Z,6.68
2023-06-06T12:16:35.930Z,4.63
2023-06-06T12:27:04.808Z,7.68
2023-06-06T12:32:16.819Z,3.28
2023-06-06T12:37:20.145Z,5.30
2023-06-06T12:42:26.731Z,2.47
2023-06-06T12:47:30.115Z,5.15
2023-06-06T12:52:32.838Z,4.93
2023-06-06T12:57:35.670Z,4.15
2023-06-06T13:02:43.853Z,4.32
2023-06-06T13:07:56.782Z,7.72
2023-06-06T13:12:59.363Z,4.50
2023-06-06T13:18:02.728Z,3.63
2023-06-06T13:23:07.130Z,5.53
2023-06-06T13:28:10.448Z,4.95
2023-06-06T13:33:13.662Z,7.78
2023-06-06T13:38:25.293Z,3.63
2023-06-06T13:43:28.228Z,2.60
2023-06-06T13:48:32.471Z,3.40
2023-06-06T13:53:35.531Z,10.55
2023-06-06T13:58:50.577Z,4.60
2023-06-06T14:03:55.274Z,4.43
2023-06-06T14:08:58.061Z,4.65
2023-06-06T14:14:02.262Z,6.32
2023-06-06T14:19:06.081Z,6.30
2023-06-06T14:24:10.271Z,4.70
2023-06-06T14:29:13.193Z,4.32
2023-06-06T14:34:16.341Z,3.92
2023-06-06T14:39:19.236Z,4.35
2023-06-06T14:44:24.527Z,2.90
2023-06-06T14:49:27.691Z,5.63
2023-06-06T14:54:31.847Z,7.90
2023-06-06T15:04:37.630Z,5.68
2023-06-06T15:09:40.147Z,3.92
2023-06-06T15:14:43.578Z,7.43
2023-06-06T15:19:46.348Z,7.93
2023-06-06T15:24:49.842Z,7.45
2023-06-06T15:29:56.753Z,5.43
2023-06-06T15:35:00.163Z,5.47
2023-06-06T15:40:04.171Z,5.13
2023-06-06T15:45:07.596Z,4.47
2023-06-06T15:50:12.347Z,7.00
2023-06-06T15:55:17.944Z,7.53
2023-06-06T16:00:23.945Z,13.43
2023-06-06T16:05:27.673Z,9.82
2023-06-06T16:10:31.012Z,8.52
2023-06-06T16:15:34.080Z,9.50
2023-06-06T16:20:36.991Z,16.85
2023-06-06T16:25:39.444Z,11.10
2023-06-06T16:30:41.873Z,7.50
2023-06-06T16:35:44.420Z,12.43
2023-06-06T16:40:47.006Z,22.80
2023-06-06T16:45:49.421Z,25.48
2023-06-06T16:50:52.273Z,34.17
2023-06-06T16:55:56.075Z,13.70
2023-06-06T17:00:59.012Z,12.02
2023-06-06T17:06:01.931Z,16.67
2023-06-06T17:11:04.383Z,21.67
2023-06-06T17:16:08.300Z,11.88
2023-06-06T17:21:11.417Z,18.17
2023-06-06T17:26:14.352Z,20.42
2023-06-06T17:31:17.105Z,22.08
2023-06-06T17:36:19.790Z,23.60
2023-06-06T17:41:22.824Z,21.75
2023-06-06T17:46:26.475Z,17.67
2023-06-06T17:51:29.038Z,22.45
2023-06-06T17:56:33.994Z,19.13
2023-06-06T18:01:37.117Z,14.75
2023-06-06T18:06:40.069Z,14.55
2023-06-06T18:11:44.447Z,14.20
2023-06-06T18:16:47.256Z,15.18
2023-06-06T18:21:50.090Z,15.57
2023-06-06T18:26:52.554Z,14.88
2023-06-06T18:31:56.722Z,17.90
2023-06-06T18:36:59.227Z,14.07
2023-06-06T18:42:05.070Z,14.50
2023-06-06T18:47:07.854Z,16.23
2023-06-06T18:52:10.454Z,16.50
2023-06-06T18:57:15.691Z,17.23
2023-06-06T19:02:18.552Z,20.00
2023-06-06T19:07:21.484Z,13.45
2023-06-06T19:12:34.619Z,10.77
2023-06-06T19:17:42.512Z,10.75
2023-06-06T19:22:46.242Z,11.20
2023-06-06T19:27:48.902Z,8.43
2023-06-06T19:32:51.506Z,10.85
2023-06-06T19:37:54.434Z,14.98
2023-06-06T19:42:58.091Z,15.73
2023-06-06T19:48:00.584Z,10.85
2023-06-06T19:53:04.169Z,11.85
2023-06-06T19:58:06.967Z,9.80
2023-06-06T20:03:09.457Z,14.63
2023-06-06T20:08:12.542Z,11.05
2023-06-06T20:13:15.405Z,10.88
2023-06-06T20:18:17.966Z,7.53
2023-06-06T20:23:20.970Z,10.55
2023-06-06T20:28:23.894Z,10.00
2023-06-06T20:33:26.665Z,11.90
2023-06-06T20:38:29.769Z,8.13
2023-06-06T20:43:35.932Z,9.00
2023-06-06T20:48:38.983Z,7.90
2023-06-06T20:53:41.867Z,7.85
2023-06-06T20:58:44.851Z,7.93
2023-06-06T21:03:47.762Z,8.88
2023-06-06T21:08:50.673Z,8.55
2023-06-06T21:13:53.648Z,11.90
2023-06-06T21:18:56.061Z,8.35
2023-06-06T21:23:58.586Z,16.40
2023-06-06T21:29:02.629Z,16.33
2023-06-06T21:34:06.085Z,10.48
2023-06-06T21:39:09.387Z,10.98
2023-06-06T21:44:12.194Z,7.05
2023-06-06T21:49:14.912Z,12.43
2023-06-06T21:54:17.321Z,7.72
2023-06-06T21:59:21.324Z,10.05
2023-06-06T22:04:23.860Z,9.35
2023-06-06T22:09:26.609Z,6.60
2023-06-06T22:14:29.580Z,7.82
2023-06-06T22:19:31.956Z,8.18
2023-06-06T22:24:34.801Z,7.03
2023-06-06T22:29:37.709Z,8.70
2023-06-06T22:34:40.068Z,7.60
2023-06-06T22:39:44.448Z,9.38
2023-06-06T22:44:47.525Z,6.53
2023-06-06T22:49:51.600Z,5.32
2023-06-06T22:54:54.019Z,7.03
2023-06-06T22:59:57.021Z,10.15
2023-06-06T23:04:59.458Z,10.30
2023-06-06T23:10:02.786Z,7.70
2023-06-06T23:15:07.132Z,11.65
2023-06-06T23:20:14.382Z,14.63
2023-06-06T23:25:17.156Z,11.57
2023-06-06T23:30:20.212Z,7.40
2023-06-06T23:35:23.381Z,8.15
2023-06-06T23:40:25.848Z,6.93
2023-06-06T23:45:29.310Z,6.88
2023-06-06T23:50:33.256Z,9.30
2023-06-06T23:55:37.480Z,7.10
